createdAt,value
2022-09-12T00:01:41.127Z,98011.34
2022-09-12T00:04:11.836Z,97992.19
2022-09-12T00:06:42.191Z,98015.06
2022-09-12T00:09:15.466Z,98016.47
2022-09-12T00:11:47.144Z,98010.91
2022-09-12T00:14:19.100Z,98003.63
2022-09-12T00:16:48.748Z,98013.56
2022-09-12T00:19:18.868Z,98017.31
2022-09-12T00:21:48.122Z,98016.88
2022-09-12T00:24:17.610Z,98020.53
2022-09-12T00:26:47.605Z,98017.47
2022-09-12T00:29:21.418Z,98020.78
2022-09-12T00:31:50.816Z,98023.88
2022-09-12T00:34:20.067Z,98023.53
2022-09-12T00:36:49.454Z,98025.91
2022-09-12T00:39:19.291Z,98025.56
2022-09-12T00:41:48.676Z,98022.03
2022-09-12T00:44:23.783Z,98021.91
2022-09-12T00:47:29.791Z,98019.50
2022-09-12T00:50:09.851Z,98018.34
2022-09-12T00:52:53.741Z,98007.38
2022-09-12T00:55:41.221Z,98011.06
2022-09-12T00:58:29.827Z,98009.97
2022-09-12T01:00:59.413Z,98002.97
2022-09-12T01:03:29.042Z,98006.50
2022-09-12T01:06:11.974Z,98008.41
2022-09-12T01:08:43.842Z,98008.59
2022-09-12T01:11:16.043Z,98005.59
2022-09-12T01:13:46.435Z,98007.84
2022-09-12T01:16:16.232Z,98003.47
2022-09-12T01:19:09.876Z,98010.72
2022-09-12T01:22:00.188Z,98006.38
2022-09-12T01:25:14.786Z,98001.00
2022-09-12T01:28:07.070Z,98016.25
2022-09-12T01:31:01.001Z,98006.03
2022-09-12T01:33:39.438Z,98008.19
2022-09-12T01:36:45.977Z,98013.69
2022-09-12T01:39:27.829Z,98012.03
2022-09-12T01:42:02.595Z,98006.53
2022-09-12T01:44:43.423Z,98015.44
2022-09-12T01:47:24.053Z,98017.84
2022-09-12T01:50:13.060Z,98016.47
2022-09-12T01:53:09.735Z,98020.94
2022-09-12T01:55:49.905Z,98019.00
2022-09-12T01:58:43.676Z,98010.88
2022-09-12T02:01:20.141Z,98008.47
2022-09-12T02:03:57.477Z,98007.94
2022-09-12T02:06:58.016Z,98001.59
2022-09-12T02:09:37.849Z,98011.63
2022-09-12T02:12:14.951Z,98012.44
2022-09-12T02:14:53.953Z,98012.28
2022-09-12T02:17:26.989Z,98017.88
2022-09-12T02:20:06.978Z,98031.94
2022-09-12T02:22:39.779Z,98019.16
2022-09-12T02:25:14.536Z,98011.72
2022-09-12T02:27:55.167Z,98019.72
2022-09-12T02:30:24.982Z,98013.34
2022-09-12T02:33:26.790Z,98008.78
2022-09-12T02:36:34.528Z,98006.38
2022-09-12T02:39:04.373Z,98007.31
2022-09-12T02:41:33.881Z,98008.03
2022-09-12T02:44:04.376Z,98004.69
2022-09-12T02:46:46.633Z,98013.63
2022-09-12T02:49:17.626Z,98008.25
2022-09-12T02:51:48.794Z,98006.06
2022-09-12T02:54:21.068Z,98007.78
2022-09-12T02:56:50.273Z,98017.97
2022-09-12T02:59:23.069Z,98023.75
2022-09-12T03:02:19.930Z,98017.84
2022-09-12T03:05:18.871Z,98018.75
2022-09-12T03:08:25.045Z,98029.25
2022-09-12T03:11:06.341Z,98027.06
2022-09-12T03:14:01.895Z,98024.31
2022-09-12T03:17:21.597Z,98028.19
2022-09-12T03:20:13.468Z,98021.94
2022-09-12T03:23:04.391Z,98024.13
2022-09-12T03:25:42.485Z,98026.63
2022-09-12T03:28:21.437Z,98031.19
2022-09-12T03:30:53.511Z,98019.91
2022-09-12T03:33:25.493Z,98020.34
2022-09-12T03:35:56.119Z,98034.75
2022-09-12T03:38:25.474Z,98019.34
2022-09-12T03:40:55.071Z,98027.75
2022-09-12T03:43:24.506Z,98026.41
2022-09-12T03:45:53.807Z,98023.78
2022-09-12T03:48:23.108Z,98029.69
2022-09-12T03:50:52.323Z,98028.69
2022-09-12T03:53:21.504Z,98031.88
2022-09-12T03:55:51.016Z,98038.81
2022-09-12T03:58:20.224Z,98035.41
2022-09-12T04:00:49.766Z,98038.03
2022-09-12T04:03:19.426Z,98054.94
2022-09-12T04:05:48.637Z,98052.19
2022-09-12T04:08:17.876Z,98050.00
2022-09-12T04:10:47.071Z,98055.47
2022-09-12T04:13:16.344Z,98047.50
2022-09-12T04:15:57.761Z,98056.97
2022-09-12T04:18:28.258Z,98060.41
2022-09-12T04:20:57.823Z,98050.69
2022-09-12T04:23:27.000Z,98058.31
2022-09-12T04:25:58.724Z,98050.22
2022-09-12T04:28:32.591Z,98056.16
2022-09-12T04:31:05.044Z,98055.28
2022-09-12T04:33:36.368Z,98054.13
2022-09-12T04:36:17.784Z,98061.09
2022-09-12T04:38:48.317Z,98060.06
2022-09-12T04:41:39.069Z,98057.00
2022-09-12T04:44:13.241Z,98061.47
2022-09-12T04:46:46.027Z,98063.50
2022-09-12T04:49:19.534Z,98063.38
2022-09-12T04:51:49.013Z,98050.38
2022-09-12T04:54:19.996Z,98057.13
2022-09-12T04:56:52.188Z,98061.00
2022-09-12T04:59:22.915Z,98057.75
2022-09-12T05:01:52.342Z,98051.03
2022-09-12T05:04:21.715Z,98053.22
2022-09-12T05:06:50.973Z,98048.50
2022-09-12T05:09:20.708Z,98059.72
2022-09-12T05:12:05.862Z,98054.56
2022-09-12T05:14:35.716Z,98054.22
2022-09-12T05:17:06.148Z,98056.47
2022-09-12T05:19:35.619Z,98055.53
2022-09-12T05:22:06.674Z,98055.66
2022-09-12T05:24:37.922Z,98052.31
2022-09-12T05:27:07.525Z,98070.91
2022-09-12T05:29:36.762Z,98059.72
2022-09-12T05:32:06.522Z,98066.50
2022-09-12T05:34:35.741Z,98064.78
2022-09-12T05:37:05.486Z,98064.94
2022-09-12T05:39:34.895Z,98068.09
2022-09-12T05:42:04.560Z,98062.75
2022-09-12T05:44:33.861Z,98067.16
2022-09-12T05:47:03.148Z,98062.09
2022-09-12T05:49:32.389Z,98069.75
2022-09-12T05:52:01.925Z,98064.47
2022-09-12T05:54:31.793Z,98069.22
2022-09-12T05:57:01.133Z,98066.56
2022-09-12T05:59:30.316Z,98063.50
2022-09-12T06:02:00.447Z,98058.94
2022-09-12T06:04:29.731Z,98054.88
2022-09-12T06:06:59.213Z,98047.25
2022-09-12T06:09:28.444Z,98049.25
2022-09-12T06:11:57.650Z,98043.28
2022-09-12T06:14:27.067Z,98040.25
2022-09-12T06:16:56.447Z,98043.53
2022-09-12T06:19:27.786Z,98031.94
2022-09-12T06:21:57.120Z,98039.63
2022-09-12T06:24:26.383Z,98041.78
2022-09-12T06:26:55.677Z,98051.06
2022-09-12T06:29:24.980Z,98042.28
2022-09-12T06:31:54.249Z,98044.13
2022-09-12T06:34:23.485Z,98047.31
2022-09-12T06:36:52.765Z,98048.38
2022-09-12T06:39:23.387Z,98051.00
2022-09-12T06:41:53.050Z,98051.00
2022-09-12T06:44:35.406Z,98052.34
2022-09-12T06:47:04.867Z,98052.59
2022-09-12T06:49:34.092Z,98051.06
2022-09-12T06:52:03.326Z,98052.09
2022-09-12T06:54:32.587Z,98046.25
2022-09-12T06:57:02.483Z,98053.63
2022-09-12T06:59:31.705Z,98058.38
2022-09-12T07:02:01.673Z,98063.72
2022-09-12T07:04:33.662Z,98057.41
2022-09-12T07:07:02.932Z,98056.88
2022-09-12T07:09:32.227Z,98055.81
2022-09-12T07:12:04.406Z,98049.16
2022-09-12T07:14:33.816Z,98049.03
2022-09-12T07:17:03.136Z,98045.91
2022-09-12T07:19:33.143Z,98043.25
2022-09-12T07:22:02.502Z,98052.34
2022-09-12T07:24:31.695Z,98049.28
2022-09-12T07:27:00.883Z,98045.78
2022-09-12T07:29:37.020Z,98040.41
2022-09-12T07:32:07.229Z,98063.09
2022-09-12T07:34:37.331Z,98064.97
2022-09-12T07:37:06.597Z,98067.03
2022-09-12T07:39:35.773Z,98073.00
2022-09-12T07:42:05.434Z,98069.41
2022-09-12T07:44:34.707Z,98070.41
2022-09-12T07:47:04.763Z,98073.03
2022-09-12T07:49:34.146Z,98077.81
2022-09-12T07:52:03.449Z,98070.69
2022-09-12T07:54:33.359Z,98070.47
2022-09-12T07:57:02.744Z,98082.31
2022-09-12T07:59:51.318Z,98081.75
2022-09-12T08:02:21.357Z,98079.44
2022-09-12T08:04:51.473Z,98080.63
2022-09-12T08:07:20.831Z,98079.50
2022-09-12T08:09:50.052Z,98072.59
2022-09-12T08:12:20.401Z,98066.56
2022-09-12T08:14:49.585Z,98070.69
2022-09-12T08:17:18.992Z,98073.72
2022-09-12T08:19:48.398Z,98063.44
2022-09-12T08:22:21.832Z,98067.22
2022-09-12T08:24:51.161Z,98071.22
2022-09-12T08:27:20.365Z,98069.94
2022-09-12T08:29:49.677Z,98075.00
2022-09-12T08:32:18.913Z,98068.22
2022-09-12T08:34:48.167Z,98069.28
2022-09-12T08:37:17.862Z,98074.75
2022-09-12T08:39:47.230Z,98083.38
2022-09-12T08:42:41.880Z,98065.63
2022-09-12T08:45:41.223Z,98073.41
2022-09-12T08:48:13.372Z,98074.81
2022-09-12T08:50:49.255Z,98077.84
2022-09-12T08:53:27.219Z,98076.84
2022-09-12T08:56:00.471Z,98081.13
2022-09-12T08:58:37.169Z,98080.31
2022-09-12T09:01:26.323Z,98076.06
2022-09-12T09:04:32.557Z,98090.63
2022-09-12T09:07:42.398Z,98071.44
2022-09-12T09:10:29.950Z,98070.28
2022-09-12T09:14:08.135Z,98072.28
2022-09-12T09:16:45.034Z,98077.63
2022-09-12T09:19:37.633Z,98069.41
2022-09-12T09:23:03.161Z,98071.88
2022-09-12T09:25:51.411Z,98084.19
2022-09-12T09:28:45.075Z,98066.00
2022-09-12T09:31:23.363Z,98064.69
2022-09-12T09:33:55.753Z,98073.75
2022-09-12T09:37:13.000Z,98075.66
2022-09-12T09:40:00.380Z,98068.75
2022-09-12T09:43:03.548Z,98073.19
2022-09-12T09:45:32.913Z,98063.81
2022-09-12T09:48:46.931Z,98057.72
2022-09-12T09:51:27.059Z,98061.25
2022-09-12T09:54:10.358Z,98058.88
2022-09-12T09:56:44.691Z,98059.44
2022-09-12T09:59:34.181Z,98058.94
2022-09-12T10:02:13.231Z,98049.66
2022-09-12T10:04:55.596Z,98062.66
2022-09-12T10:07:27.179Z,98041.94
2022-09-12T10:10:19.056Z,98051.50
2022-09-12T10:12:48.770Z,98054.94
2022-09-12T10:15:27.677Z,98055.72
2022-09-12T10:17:57.104Z,98051.22
2022-09-12T10:20:46.553Z,98050.44
2022-09-12T10:23:35.274Z,98055.25
2022-09-12T10:26:12.785Z,98061.34
2022-09-12T10:28:52.164Z,98063.72
2022-09-12T10:31:36.215Z,98059.75
2022-09-12T10:34:05.790Z,98058.94
2022-09-12T10:36:40.520Z,98057.91
2022-09-12T10:39:19.655Z,98057.84
2022-09-12T10:41:49.008Z,98067.91
2022-09-12T10:44:26.543Z,98067.94
2022-09-12T10:46:56.156Z,98065.00
2022-09-12T10:49:31.405Z,98056.72
2022-09-12T10:52:26.070Z,98055.06
2022-09-12T10:54:55.585Z,98052.31
2022-09-12T10:57:40.009Z,98067.47
2022-09-12T11:00:27.583Z,98054.53
2022-09-12T11:04:04.678Z,98081.44
2022-09-12T11:07:14.869Z,98069.88
2022-09-12T11:10:00.551Z,98077.44
2022-09-12T11:12:54.452Z,98072.66
2022-09-12T11:15:26.743Z,98079.25
2022-09-12T11:18:20.607Z,98074.50
2022-09-12T11:20:57.792Z,98070.56
2022-09-12T11:23:56.988Z,98074.56
2022-09-12T11:26:58.040Z,98066.63
2022-09-12T11:29:50.589Z,98067.94
2022-09-12T11:32:56.569Z,98075.34
2022-09-12T11:35:30.469Z,98071.34
2022-09-12T11:38:50.712Z,98077.53
2022-09-12T11:41:36.831Z,98084.19
2022-09-12T11:44:17.738Z,98080.47
2022-09-12T11:46:51.535Z,98083.91
2022-09-12T11:49:51.529Z,98080.44
2022-09-12T11:52:24.525Z,98072.75
2022-09-12T11:54:59.626Z,98076.47
2022-09-12T11:57:43.988Z,98080.66
2022-09-12T12:00:34.196Z,98078.03
2022-09-12T12:03:40.974Z,98083.25
2022-09-12T12:06:26.716Z,98077.69
2022-09-12T12:08:57.113Z,98087.81
2022-09-12T12:11:44.009Z,98080.63
2022-09-12T12:14:45.472Z,98085.94
2022-09-12T12:17:26.422Z,98083.31
2022-09-12T12:20:07.455Z,98079.63
2022-09-12T12:22:37.976Z,98084.38
2022-09-12T12:25:23.602Z,98090.22
2022-09-12T12:28:01.503Z,98073.81
2022-09-12T12:30:30.687Z,98085.72
2022-09-12T12:33:20.100Z,98105.38
2022-09-12T12:36:00.957Z,98108.03
2022-09-12T12:38:38.584Z,98103.28
2022-09-12T12:41:16.973Z,98106.44
2022-09-12T12:43:54.636Z,98094.53
2022-09-12T12:46:27.822Z,98103.28
2022-09-12T12:49:11.158Z,98096.13
2022-09-12T12:52:01.913Z,98099.28
2022-09-12T12:54:40.129Z,98098.22
2022-09-12T12:57:20.023Z,98116.78
2022-09-12T12:59:54.554Z,98101.16
2022-09-12T13:02:48.982Z,98094.78
2022-09-12T13:05:24.647Z,98082.53
2022-09-12T13:08:19.244Z,98086.28
2022-09-12T13:11:03.077Z,98068.41
2022-09-12T13:14:07.618Z,98061.88
2022-09-12T13:16:53.211Z,98049.72
2022-09-12T13:19:32.518Z,98052.38
2022-09-12T13:22:05.025Z,98044.16
2022-09-12T13:24:44.582Z,98038.59
2022-09-12T13:27:25.695Z,98040.34
2022-09-12T13:30:14.574Z,98038.84
2022-09-12T13:32:44.694Z,98040.38
2022-09-12T13:35:47.035Z,98042.38
2022-09-12T13:38:45.743Z,98039.34
2022-09-12T13:41:51.099Z,98046.31
2022-09-12T13:44:23.919Z,98038.38
2022-09-12T13:46:55.587Z,98030.16
2022-09-12T13:49:38.231Z,98034.75
2022-09-12T13:52:21.451Z,98051.19
2022-09-12T13:54:55.649Z,98062.84
2022-09-12T13:57:33.879Z,98064.22
2022-09-12T14:00:12.459Z,98063.00
2022-09-12T14:02:42.097Z,98074.66
2022-09-12T14:05:22.909Z,98077.78
2022-09-12T14:07:58.475Z,98073.13
2022-09-12T14:10:33.738Z,98082.56
2022-09-12T14:13:12.993Z,98077.09
2022-09-12T14:15:52.586Z,98079.19
2022-09-12T14:18:36.607Z,98082.19
2022-09-12T14:21:17.692Z,98090.84
2022-09-12T14:23:49.311Z,98084.50
2022-09-12T14:26:19.180Z,98087.09
2022-09-12T14:28:49.141Z,98090.91
2022-09-12T14:31:31.873Z,98094.44
2022-09-12T14:34:16.885Z,98083.84
2022-09-12T14:36:56.360Z,98093.47
2022-09-12T14:39:43.501Z,98090.63
2022-09-12T14:42:27.527Z,98089.34
2022-09-12T14:45:17.123Z,98097.59
2022-09-12T14:47:51.434Z,98088.06
2022-09-12T14:50:26.779Z,98089.16
2022-09-12T14:53:17.109Z,98088.63
2022-09-12T14:55:56.039Z,98092.34
2022-09-12T14:58:28.408Z,98085.16
2022-09-12T15:01:06.355Z,98098.47
2022-09-12T15:03:43.947Z,98090.25
2022-09-12T15:06:31.461Z,98087.63
2022-09-12T15:09:14.512Z,98086.81
2022-09-12T15:11:43.724Z,98087.88
2022-09-12T15:14:15.095Z,98096.09
2022-09-12T15:16:44.316Z,98097.16
2022-09-12T15:19:14.213Z,98090.81
2022-09-12T15:21:43.433Z,98095.06
2022-09-12T15:24:12.633Z,98097.44
2022-09-12T15:26:41.808Z,98095.84
2022-09-12T15:29:10.980Z,98097.69
2022-09-12T15:31:40.663Z,98088.69
2022-09-12T15:34:10.057Z,98093.97
2022-09-12T15:36:39.332Z,98099.84
2022-09-12T15:39:10.668Z,98102.47
2022-09-12T15:41:39.973Z,98106.16
2022-09-12T15:44:14.077Z,98108.22
2022-09-12T15:46:43.401Z,98106.09
2022-09-12T15:49:12.752Z,98108.75
2022-09-12T15:51:41.997Z,98098.41
2022-09-12T15:54:15.256Z,98110.31
2022-09-12T15:56:44.894Z,98107.13
2022-09-12T15:59:14.086Z,98105.78
2022-09-12T16:01:43.403Z,98109.22
2022-09-12T16:04:28.484Z,98112.66
2022-09-12T16:06:58.130Z,98118.19
2022-09-12T16:09:27.383Z,98121.09
2022-09-12T16:11:56.562Z,98132.97
2022-09-12T16:14:25.902Z,98123.13
2022-09-12T16:16:57.719Z,98124.69
2022-09-12T16:19:26.884Z,98128.84
2022-09-12T16:21:56.102Z,98125.38
2022-09-12T16:24:25.313Z,98123.47
2022-09-12T16:26:56.863Z,98117.06
2022-09-12T16:29:30.341Z,98125.22
2022-09-12T16:31:59.601Z,98125.16
2022-09-12T16:34:28.844Z,98127.19
2022-09-12T16:36:58.062Z,98113.59
2022-09-12T16:39:27.314Z,98132.56
2022-09-12T16:41:56.557Z,98117.91
2022-09-12T16:44:25.782Z,98121.00
2022-09-12T16:46:55.508Z,98118.31
2022-09-12T16:49:24.718Z,98121.91
2022-09-12T16:51:53.858Z,98122.31
2022-09-12T16:54:23.833Z,98119.00
2022-09-12T16:56:53.110Z,98123.63
2022-09-12T16:59:22.456Z,98124.00
2022-09-12T17:01:52.309Z,98119.03
2022-09-12T17:04:23.700Z,98124.41
2022-09-12T17:06:53.095Z,98128.97
2022-09-12T17:09:22.429Z,98134.44
2022-09-12T17:11:53.251Z,98138.75
2022-09-12T17:14:22.961Z,98132.78
2022-09-12T17:16:52.613Z,98137.66
2022-09-12T17:19:29.667Z,98135.44
2022-09-12T17:21:59.107Z,98132.91
2022-09-12T17:24:28.462Z,98153.25
2022-09-12T17:26:57.670Z,98151.00
2022-09-12T17:29:27.464Z,98150.44
2022-09-12T17:31:57.209Z,98160.91
2022-09-12T17:34:26.427Z,98159.69
2022-09-12T17:36:55.584Z,98157.44
2022-09-12T17:39:24.886Z,98156.91
2022-09-12T17:41:57.808Z,98171.72
2022-09-12T17:44:29.817Z,98169.59
2022-09-12T17:46:59.057Z,98171.72
2022-09-12T17:49:28.469Z,98170.94
2022-09-12T17:51:57.922Z,98177.03
2022-09-12T17:54:27.716Z,98178.88
2022-09-12T17:56:56.999Z,98180.97
2022-09-12T17:59:29.198Z,98180.16
2022-09-12T18:02:13.571Z,98174.00
2022-09-12T18:04:48.748Z,98174.00
2022-09-12T18:07:19.711Z,98181.75
2022-09-12T18:09:50.623Z,98182.41
2022-09-12T18:12:20.117Z,98188.91
2022-09-12T18:14:49.331Z,98194.41
2022-09-12T18:17:18.720Z,98193.50
2022-09-12T18:19:53.367Z,98200.09
2022-09-12T18:22:22.914Z,98202.69
2022-09-12T18:24:52.121Z,98208.66
2022-09-12T18:27:21.394Z,98209.53
2022-09-12T18:30:10.285Z,98210.66
2022-09-12T18:32:40.234Z,98205.38
2022-09-12T18:35:09.754Z,98203.53
2022-09-12T18:37:41.494Z,98205.66
2022-09-12T18:40:11.358Z,98211.22
2022-09-12T18:42:40.632Z,98204.25
2022-09-12T18:45:10.252Z,98209.69
2022-09-12T18:47:39.461Z,98209.13
2022-09-12T18:50:09.651Z,98206.94
2022-09-12T18:52:38.816Z,98203.75
2022-09-12T18:55:08.609Z,98204.75
2022-09-12T18:57:38.305Z,98210.53
2022-09-12T19:00:12.367Z,98217.69
2022-09-12T19:02:41.808Z,98216.25
2022-09-12T19:05:12.826Z,98225.81
2022-09-12T19:07:42.122Z,98219.59
2022-09-12T19:10:12.043Z,98227.13
2022-09-12T19:12:41.342Z,98208.88
2022-09-12T19:15:10.980Z,98213.84
2022-09-12T19:17:40.181Z,98215.53
2022-09-12T19:20:09.684Z,98232.50
2022-09-12T19:22:38.951Z,98225.84
2022-09-12T19:25:08.801Z,98233.56
2022-09-12T19:27:38.119Z,98233.72
2022-09-12T19:30:08.097Z,98243.88
2022-09-12T19:32:37.300Z,98230.59
2022-09-12T19:35:06.872Z,98234.69
2022-09-12T19:37:36.075Z,98229.88
2022-09-12T19:40:07.243Z,98228.72
2022-09-12T19:42:36.515Z,98224.31
2022-09-12T19:45:06.559Z,98223.50
2022-09-12T19:47:35.790Z,98216.91
2022-09-12T19:50:05.877Z,98218.75
2022-09-12T19:52:35.202Z,98220.78
2022-09-12T19:55:04.815Z,98217.59
2022-09-12T19:57:34.191Z,98221.22
2022-09-12T20:00:06.775Z,98220.47
2022-09-12T20:02:36.085Z,98223.94
2022-09-12T20:05:05.964Z,98220.53
2022-09-12T20:07:35.188Z,98218.19
2022-09-12T20:10:05.096Z,98223.47
2022-09-12T20:12:34.321Z,98217.66
2022-09-12T20:15:05.065Z,98219.25
2022-09-12T20:17:35.661Z,98220.88
2022-09-12T20:20:07.796Z,98211.81
2022-09-12T20:22:40.164Z,98210.66
2022-09-12T20:25:09.794Z,98210.25
2022-09-12T20:27:39.862Z,98215.53
2022-09-12T20:30:10.290Z,98213.50
2022-09-12T20:32:39.545Z,98207.09
2022-09-12T20:35:09.815Z,98205.91
2022-09-12T20:37:40.776Z,98212.81
2022-09-12T20:40:11.453Z,98213.44
2022-09-12T20:42:41.211Z,98211.25
2022-09-12T20:45:10.792Z,98217.31
2022-09-12T20:47:39.989Z,98207.47
2022-09-12T20:50:09.677Z,98221.72
2022-09-12T20:52:38.989Z,98207.69
2022-09-12T20:55:09.109Z,98217.53
2022-09-12T20:57:39.014Z,98216.97
2022-09-12T21:00:11.413Z,98222.38
2022-09-12T21:02:40.848Z,98224.19
2022-09-12T21:05:10.203Z,98227.00
2022-09-12T21:07:39.407Z,98217.75
2022-09-12T21:10:09.200Z,98228.66
2022-09-12T21:12:39.585Z,98233.88
2022-09-12T21:15:09.561Z,98236.88
2022-09-12T21:17:38.888Z,98237.91
2022-09-12T21:20:11.383Z,98242.13
2022-09-12T21:22:40.876Z,98234.31
2022-09-12T21:25:10.890Z,98228.69
2022-09-12T21:27:40.120Z,98232.31
2022-09-12T21:30:10.082Z,98237.56
2022-09-12T21:32:39.380Z,98241.56
2022-09-12T21:35:09.240Z,98235.34
2022-09-12T21:37:38.481Z,98240.75
2022-09-12T21:40:08.093Z,98237.34
2022-09-12T21:42:37.424Z,98230.53
2022-09-12T21:45:07.366Z,98246.59
2022-09-12T21:47:39.126Z,98232.34
2022-09-12T21:50:09.674Z,98236.75
2022-09-12T21:52:39.647Z,98229.94
2022-09-12T21:55:09.947Z,98233.53
2022-09-12T21:57:40.047Z,98227.53
2022-09-12T22:00:15.768Z,98231.75
2022-09-12T22:02:46.511Z,98229.94
2022-09-12T22:05:16.798Z,98235.78
2022-09-12T22:07:45.982Z,98240.41
2022-09-12T22:10:15.325Z,98233.56
2022-09-12T22:12:46.509Z,98226.72
2022-09-12T22:15:39.491Z,98230.34
2022-09-12T22:18:07.377Z,98234.75
2022-09-12T22:20:36.594Z,98227.75
2022-09-12T22:23:25.150Z,98223.69
2022-09-12T22:25:56.474Z,98235.72
2022-09-12T22:28:25.730Z,98227.69
2022-09-12T22:30:55.134Z,98230.31
2022-09-12T22:33:24.355Z,98223.66
2022-09-12T22:35:53.832Z,98231.91
2022-09-12T22:38:23.052Z,98231.09
2022-09-12T22:40:52.352Z,98236.34
2022-09-12T22:43:21.574Z,98232.31
2022-09-12T22:45:50.916Z,98229.50
2022-09-12T22:48:20.472Z,98226.66
2022-09-12T22:50:49.870Z,98232.25
2022-09-12T22:53:19.494Z,98234.28
2022-09-12T22:55:48.766Z,98233.88
2022-09-12T22:58:18.326Z,98233.47
2022-09-12T23:00:51.714Z,98228.84
2022-09-12T23:03:21.756Z,98232.25
2022-09-12T23:05:51.095Z,98239.25
2022-09-12T23:08:20.515Z,98231.44
2022-09-12T23:10:49.695Z,98227.00
2022-09-12T23:13:18.899Z,98225.41
2022-09-12T23:15:48.309Z,98231.38
2022-09-12T23:18:17.608Z,98231.00
2022-09-12T23:21:01.232Z,98235.03
2022-09-12T23:23:30.900Z,98233.97
2022-09-12T23:26:22.373Z,98235.78
2022-09-12T23:28:54.814Z,98228.56
2022-09-12T23:31:29.856Z,98228.56
2022-09-12T23:34:02.909Z,98226.16
2022-09-12T23:36:33.002Z,98232.53
2022-09-12T23:39:02.889Z,98231.75
2022-09-12T23:41:32.316Z,98227.75
2022-09-12T23:44:02.014Z,98223.09
2022-09-12T23:46:31.231Z,98225.31
2022-09-12T23:49:00.391Z,98217.25
2022-09-12T23:51:29.694Z,98228.28
2022-09-12T23:53:59.020Z,98237.69
2022-09-12T23:56:28.360Z,98227.22
2022-09-12T23:58:57.580Z,98222.97
